Time;durP1;ratioP1;P1;durP2;ratioP2;P2;SDS_P1;SDS_P2;PMS_P1;PMS_P2;Temp;Humidity;BMP_temperature;BMP_pressure;BME280_temperature;BME280_humidity;BME280_pressure;Samples;Min_cycle;Max_cycle;Signal;HPM_P1;HPM_P2
2022/08/04 00:01:02;;;;;;;1.47;0.27;;;21.40;99.90;;;;;;5014426;28;20411;-86
2022/08/04 00:03:37;;;;;;;0.70;0.20;;;21.30;99.90;;;;;;5014654;28;20405;-84
2022/08/04 00:06:10;;;;;;;8.00;1.13;;;21.20;99.90;;;;;;5015303;28;20509;-84
2022/08/04 00:08:47;;;;;;;1.43;0.63;;;21.30;99.90;;;;;;5015311;28;20454;-84
2022/08/04 00:11:25;;;;;;;2.87;1.00;;;21.20;99.90;;;;;;5015290;28;20432;-84
2022/08/04 00:13:59;;;;;;;1.33;0.37;;;21.20;99.90;;;;;;5015330;28;20974;-83
2022/08/04 00:16:28;;;;;;;3.50;1.00;;;21.10;99.90;;;;;;5014927;28;20499;-84
2022/08/04 00:19:02;;;;;;;3.00;0.30;;;21.10;99.90;;;;;;5015214;28;20406;-85
2022/08/04 00:21:34;;;;;;;1.03;0.40;;;21.10;99.90;;;;;;5015271;28;20491;-84
2022/08/04 00:24:01;;;;;;;0.70;0.30;;;21.10;99.90;;;;;;5015129;28;20435;-84
2022/08/04 00:26:27;;;;;;;1.83;0.60;;;21.10;99.90;;;;;;5014922;28;20426;-84
2022/08/04 00:28:54;;;;;;;2.97;0.30;;;21.10;99.90;;;;;;5014952;28;20485;-84
2022/08/04 00:31:21;;;;;;;1.73;0.73;;;21.00;99.90;;;;;;5014630;28;20203;-84
2022/08/04 00:33:48;;;;;;;1.80;0.30;;;21.00;99.90;;;;;;5014923;28;20441;-84
2022/08/04 00:36:15;;;;;;;1.30;0.37;;;21.00;99.90;;;;;;5015038;28;20494;-84
2022/08/04 00:38:42;;;;;;;1.63;0.50;;;21.00;99.90;;;;;;4997233;28;20420;-85
2022/08/04 00:41:21;;;;;;;0.70;0.30;;;20.90;99.90;;;;;;5014788;28;20410;-84
2022/08/04 00:44:15;;;;;;;2.20;0.60;;;20.90;99.90;;;;;;5014189;28;20809;-84
2022/08/04 00:47:04;;;;;;;2.40;0.40;;;21.00;99.90;;;;;;5014429;28;20411;-87
2022/08/04 00:49:45;;;;;;;1.73;0.50;;;20.90;99.90;;;;;;5014724;28;20469;-89
2022/08/04 00:52:35;;;;;;;1.40;0.57;;;20.90;99.90;;;;;;5014880;28;20418;-89
2022/08/04 00:55:00;;;;;;;1.77;1.10;;;20.90;99.90;;;;;;5014961;28;20455;-88
2022/08/04 00:57:56;;;;;;;3.07;0.93;;;20.80;99.90;;;;;;5014608;28;20445;-87
2022/08/04 01:00:22;;;;;;;1.57;0.73;;;20.80;99.90;;;;;;4997251;28;20178;-89
2022/08/04 01:02:56;;;;;;;1.27;0.40;;;20.80;99.90;;;;;;5014419;28;20470;-88
2022/08/04 01:06:05;;;;;;;0.93;0.60;;;20.80;99.90;;;;;;5014588;28;20503;-88
2022/08/04 01:09:06;;;;;;;2.63;0.50;;;20.80;99.90;;;;;;5014497;28;20418;-88
2022/08/04 01:11:52;;;;;;;1.50;1.33;;;20.80;99.90;;;;;;5014508;28;20428;-84
2022/08/04 01:14:31;;;;;;;2.07;0.70;;;20.80;99.90;;;;;;5014409;28;20410;-87
2022/08/04 01:17:16;;;;;;;5.83;0.20;;;20.80;99.90;;;;;;5014143;28;20407;-87
2022/08/04 01:19:52;;;;;;;0.77;0.50;;;20.80;99.90;;;;;;4996742;28;20468;-87
2022/08/04 01:22:27;;;;;;;2.80;0.60;;;20.70;99.90;;;;;;5014394;28;20832;-88
2022/08/04 01:25:28;;;;;;;0.80;0.33;;;20.70;99.90;;;;;;4996683;28;20455;-87
2022/08/04 01:28:20;;;;;;;1.30;0.40;;;20.70;99.90;;;;;;4996574;28;20941;-88
2022/08/04 01:30:52;;;;;;;0.77;0.30;;;20.70;99.90;;;;;;4996237;28;20476;-85
2022/08/04 01:33:21;;;;;;;1.27;0.67;;;20.60;99.90;;;;;;5014173;28;20414;-85
2022/08/04 01:35:53;;;;;;;2.53;0.60;;;20.60;99.90;;;;;;5014047;28;20542;-86
2022/08/04 01:38:32;;;;;;;1.20;0.60;;;20.60;99.90;;;;;;5014021;28;20436;-88
2022/08/04 01:41:06;;;;;;;2.10;0.53;;;20.60;99.90;;;;;;5014115;28;20414;-88
2022/08/04 01:43:34;;;;;;;1.23;0.60;;;20.50;99.90;;;;;;5014020;28;20422;-88
2022/08/04 01:46:03;;;;;;;1.80;0.80;;;20.50;99.90;;;;;;5013577;28;20933;-87
2022/08/04 01:48:29;;;;;;;2.00;0.50;;;20.40;99.90;;;;;;4996295;28;20502;-87
2022/08/04 01:51:02;;;;;;;1.10;0.40;;;20.40;99.90;;;;;;5013546;28;20495;-85
2022/08/04 01:53:33;;;;;;;3.50;1.10;;;20.30;99.90;;;;;;5013899;28;20417;-85
2022/08/04 01:56:01;;;;;;;1.30;0.43;;;20.20;99.90;;;;;;4993949;28;20537;-85
2022/08/04 01:58:29;;;;;;;1.23;0.30;;;20.20;99.90;;;;;;4995893;28;20431;-86
2022/08/04 02:00:56;;;;;;;2.10;0.83;;;20.10;99.90;;;;;;4995692;28;20778;-86
2022/08/04 02:03:21;;;;;;;2.53;0.87;;;20.10;99.90;;;;;;5013968;28;20435;-91
2022/08/04 02:05:49;;;;;;;1.57;0.57;;;20.10;99.90;;;;;;4996237;28;20442;-91
2022/08/04 02:08:40;;;;;;;2.03;0.53;;;20.00;99.90;;;;;;5012941;28;20171;-86
2022/08/04 02:11:15;;;;;;;1.30;0.53;;;20.00;99.90;;;;;;5013307;28;20797;-88
2022/08/04 02:14:00;;;;;;;3.03;0.77;;;19.90;99.90;;;;;;5013445;28;20412;-88
2022/08/04 02:16:46;;;;;;;1.50;0.47;;;19.80;99.90;;;;;;5012778;28;20428;-88
2022/08/04 02:19:24;;;;;;;5.53;0.97;;;19.80;99.90;;;;;;5005390;28;20424;-86
2022/08/04 02:21:56;;;;;;;2.60;0.60;;;19.70;99.90;;;;;;4998363;28;20484;-89
2022/08/04 02:24:26;;;;;;;1.30;0.60;;;19.70;99.90;;;;;;5007733;28;20456;-87
2022/08/04 02:26:55;;;;;;;1.83;0.47;;;19.80;99.90;;;;;;5005235;28;20449;-88
2022/08/04 02:29:55;;;;;;;0.90;0.37;;;19.70;99.90;;;;;;5012985;28;20464;-88
2022/08/04 02:32:26;;;;;;;0.90;0.70;;;19.70;99.90;;;;;;5011332;28;20420;-87
2022/08/04 02:35:26;;;;;;;3.53;0.57;;;19.70;99.90;;;;;;5012667;28;20453;-84
2022/08/04 02:38:10;;;;;;;1.83;0.30;;;19.70;99.90;;;;;;4954149;28;20943;-89
2022/08/04 02:40:38;;;;;;;2.37;0.87;;;19.70;99.90;;;;;;5012742;28;20421;-88
2022/08/04 02:43:07;;;;;;;2.30;0.90;;;19.60;99.90;;;;;;5013077;28;20776;-89
2022/08/04 02:45:36;;;;;;;0.87;0.40;;;19.60;99.90;;;;;;5013238;28;20417;-86
2022/08/04 02:48:03;;;;;;;2.00;0.70;;;19.50;99.90;;;;;;5013496;28;20420;-85
2022/08/04 02:50:33;;;;;;;1.90;0.87;;;19.50;99.90;;;;;;5013554;28;20984;-88
2022/08/04 02:53:01;;;;;;;2.37;0.80;;;19.50;99.90;;;;;;5013477;28;20416;-86
2022/08/04 02:55:28;;;;;;;2.27;0.80;;;19.50;99.90;;;;;;5013471;28;20490;-89
2022/08/04 02:57:57;;;;;;;1.17;0.33;;;19.50;99.90;;;;;;4996158;28;20438;-90
2022/08/04 03:00:23;;;;;;;4.33;0.90;;;19.50;99.90;;;;;;5013372;28;20861;-88
2022/08/04 03:03:23;;;;;;;6.10;0.80;;;19.40;99.90;;;;;;5013287;28;20445;-89
2022/08/04 03:06:06;;;;;;;1.30;0.50;;;19.40;99.90;;;;;;4996089;28;20169;-88
2022/08/04 03:09:03;;;;;;;2.70;0.53;;;19.40;99.90;;;;;;5016683;28;20513;-88
2022/08/04 03:12:03;;;;;;;2.63;1.33;;;19.40;99.90;;;;;;5016853;28;20436;-88
2022/08/04 03:14:54;;;;;;;2.10;0.93;;;19.40;99.90;;;;;;4999540;28;20421;-87
2022/08/04 03:17:46;;;;;;;2.10;0.77;;;19.40;99.90;;;;;;5016724;28;20436;-89
2022/08/04 03:20:50;;;;;;;2.50;1.23;;;19.50;99.90;;;;;;4999443;28;20932;-89
2022/08/04 03:23:43;;;;;;;0.77;0.40;;;19.40;99.90;;;;;;4999250;28;20924;-88
2022/08/04 03:26:42;;;;;;;2.60;1.37;;;19.40;99.90;;;;;;5016868;28;20417;-86
2022/08/04 03:29:42;;;;;;;1.53;0.80;;;19.40;99.90;;;;;;5016853;28;20484;-85
2022/08/04 03:32:58;;;;;;;2.77;0.80;;;19.40;99.90;;;;;;5016876;28;20406;-89
2022/08/04 03:35:42;;;;;;;1.53;0.87;;;19.40;99.90;;;;;;4998791;28;20932;-83
2022/08/04 03:38:29;;;;;;;1.50;0.80;;;19.30;99.90;;;;;;5016313;28;20797;-85
2022/08/04 03:40:57;;;;;;;1.60;0.50;;;19.20;99.90;;;;;;5016206;28;20416;-88
2022/08/04 03:43:46;;;;;;;1.27;0.60;;;19.10;99.90;;;;;;5016341;28;20408;-85
2022/08/04 03:46:33;;;;;;;0.83;0.47;;;19.20;99.90;;;;;;4998423;28;20475;-88
2022/08/04 03:49:17;;;;;;;6.03;1.10;;;19.30;99.90;;;;;;5016192;28;20452;-89
2022/08/04 03:55:24;;;;;;;1.10;0.40;;;19.20;99.90;;;;;;5016603;28;20481;-89
2022/08/04 03:58:15;;;;;;;1.40;0.67;;;19.20;99.90;;;;;;4998874;28;20421;-87
2022/08/04 04:01:16;;;;;;;1.63;0.57;;;19.10;99.90;;;;;;4993000;28;20464;-84
2022/08/04 04:04:00;;;;;;;5.90;2.60;;;19.20;99.90;;;;;;4998164;28;20429;-88
2022/08/04 04:07:00;;;;;;;1.57;0.97;;;19.30;99.90;;;;;;5015524;28;20416;-84
2022/08/04 04:10:04;;;;;;;2.40;1.43;;;19.40;99.90;;;;;;5015699;28;20464;-86
2022/08/04 04:12:48;;;;;;;1.70;0.70;;;19.70;99.90;;;;;;4997923;28;20439;-85
2022/08/04 04:15:46;;;;;;;2.97;1.13;;;19.70;99.90;;;;;;5015523;28;20410;-85
2022/08/04 04:18:30;;;;;;;2.30;1.23;;;19.40;99.90;;;;;;5014434;28;20938;-84
2022/08/04 04:21:27;;;;;;;1.70;0.60;;;19.40;99.90;;;;;;5015277;28;20503;-84
2022/08/04 04:24:23;;;;;;;1.80;1.37;;;19.40;99.90;;;;;;5015311;28;20918;-84
2022/08/04 04:27:12;;;;;;;2.00;0.57;;;19.60;99.90;;;;;;5013157;28;20433;-85
2022/08/04 04:30:22;;;;;;;2.60;1.10;;;19.70;99.90;;;;;;5014714;28;20464;-86
2022/08/04 04:33:34;;;;;;;3.97;1.53;;;19.80;99.90;;;;;;5012315;28;20832;-87
2022/08/04 04:36:23;;;;;;;2.60;1.53;;;19.90;99.90;;;;;;5014493;28;20416;-86
2022/08/04 04:39:01;;;;;;;2.37;1.00;;;19.90;99.90;;;;;;4996044;28;20508;-92
2022/08/04 04:41:46;;;;;;;2.00;1.10;;;20.00;99.90;;;;;;4998360;28;20448;-92
2022/08/04 04:44:33;;;;;;;2.77;0.83;;;20.00;99.90;;;;;;5014814;28;20475;-90
2022/08/04 04:47:23;;;;;;;2.40;1.13;;;20.10;99.90;;;;;;5014267;28;20408;-88
2022/08/04 04:50:10;;;;;;;5.53;1.67;;;20.10;99.90;;;;;;5012920;28;20479;-91
2022/08/04 04:53:05;;;;;;;2.07;1.03;;;20.10;99.90;;;;;;5014978;28;20412;-89
2022/08/04 04:55:41;;;;;;;2.67;2.03;;;20.20;99.90;;;;;;5012559;28;20424;-90
2022/08/04 04:58:11;;;;;;;1.07;0.83;;;20.30;99.90;;;;;;4998154;28;20429;-93
2022/08/04 05:00:45;;;;;;;1.30;0.83;;;20.30;99.90;;;;;;5015416;28;20408;-91
2022/08/04 05:03:52;;;;;;;2.27;1.03;;;20.40;99.90;;;;;;5015251;28;20428;-86
2022/08/04 05:06:18;;;;;;;1.30;0.73;;;20.40;99.90;;;;;;5014897;28;20508;-90
2022/08/04 05:09:21;;;;;;;1.63;1.03;;;20.50;99.90;;;;;;4997496;28;20828;-86
2022/08/04 05:11:58;;;;;;;2.70;1.10;;;20.50;99.90;;;;;;5014699;28;20174;-87
2022/08/04 05:14:30;;;;;;;1.80;1.03;;;20.60;99.90;;;;;;4996992;28;20431;-89
2022/08/04 05:17:22;;;;;;;2.10;1.47;;;20.60;99.90;;;;;;5013825;28;20422;-83
2022/08/04 05:19:59;;;;;;;6.03;1.20;;;20.60;99.90;;;;;;5012210;28;20429;-87
2022/08/04 05:22:38;;;;;;;3.00;1.37;;;20.70;99.90;;;;;;5012791;28;20426;-85
2022/08/04 05:25:11;;;;;;;1.87;1.40;;;20.80;99.90;;;;;;4995465;28;20428;-84
2022/08/04 05:27:40;;;;;;;1.73;1.37;;;21.00;99.90;;;;;;4996209;28;20429;-85
2022/08/04 05:30:07;;;;;;;2.40;1.50;;;21.10;99.90;;;;;;5012419;28;20562;-83
2022/08/04 05:32:43;;;;;;;2.20;1.40;;;21.30;99.90;;;;;;5014008;28;20420;-83
2022/08/04 05:35:19;;;;;;;2.70;1.10;;;21.50;99.90;;;;;;5013982;28;20414;-85
2022/08/04 05:37:47;;;;;;;4.10;1.97;;;21.70;99.90;;;;;;5013942;28;20424;-83
2022/08/04 05:40:16;;;;;;;1.23;0.80;;;21.90;99.90;;;;;;5013795;28;20425;-85
2022/08/04 05:42:42;;;;;;;3.63;1.33;;;22.10;99.90;;;;;;5013770;28;20414;-85
2022/08/04 05:45:09;;;;;;;2.20;1.27;;;22.50;99.90;;;;;;4995880;28;20782;-84
2022/08/04 05:47:35;;;;;;;3.10;1.00;;;22.60;99.90;;;;;;4996288;28;20422;-85
2022/08/04 05:50:03;;;;;;;4.27;1.30;;;22.90;99.90;;;;;;5013502;28;20505;-86
2022/08/04 05:52:31;;;;;;;3.87;1.10;;;23.20;99.90;;;;;;5012127;28;20808;-87
2022/08/04 05:54:58;;;;;;;2.53;1.13;;;23.50;99.90;;;;;;5013403;28;20431;-84
2022/08/04 05:57:24;;;;;;;1.80;1.00;;;23.60;99.90;;;;;;5012862;28;20420;-86
2022/08/04 05:59:52;;;;;;;2.20;0.60;;;23.70;94.10;;;;;;5013293;28;20439;-85
2022/08/04 06:02:19;;;;;;;3.63;1.10;;;24.00;5.90;;;;;;5012304;28;20435;-84
2022/08/04 06:04:48;;;;;;;1.07;0.50;;;24.60;1.00;;;;;;5012137;28;20426;-86
2022/08/04 06:07:14;;;;;;;1.37;0.90;;;24.80;1.00;;;;;;5012782;28;20428;-85
2022/08/04 06:09:41;;;;;;;1.97;0.70;;;25.20;1.00;;;;;;5013338;28;20465;-85
2022/08/04 06:12:10;;;;;;;4.43;0.83;;;25.00;1.00;;;;;;5013453;28;20182;-85
2022/08/04 06:14:44;;;;;;;2.03;0.70;;;25.20;1.00;;;;;;5013390;28;20418;-86
2022/08/04 06:17:18;;;;;;;4.73;1.13;;;24.70;1.00;;;;;;5013110;28;20410;-86
2022/08/04 06:19:44;;;;;;;2.70;1.00;;;24.50;1.00;;;;;;5014007;28;20397;-92
2022/08/04 06:22:12;;;;;;;5.23;0.83;;;24.70;1.00;;;;;;5013692;28;20483;-90
2022/08/04 06:24:39;;;;;;;1.73;0.97;;;24.70;1.00;;;;;;5013375;28;20640;-88
2022/08/04 06:27:06;;;;;;;5.03;1.43;;;25.10;1.00;;;;;;5013722;28;20487;-90
2022/08/04 06:29:35;;;;;;;1.80;0.93;;;25.00;1.00;;;;;;5014505;28;20477;-92
2022/08/04 06:32:12;;;;;;;5.67;0.90;;;24.70;1.00;;;;;;5013838;28;20964;-91
2022/08/04 06:34:38;;;;;;;1.00;0.60;;;24.90;1.00;;;;;;5014143;28;20948;-91
2022/08/04 06:37:06;;;;;;;1.47;0.83;;;25.70;99.90;;;;;;5014115;28;20461;-92
2022/08/04 06:39:32;;;;;;;2.43;1.23;;;26.50;1.00;;;;;;5014071;28;20418;-92
2022/08/04 06:41:58;;;;;;;2.50;0.60;;;26.50;1.00;;;;;;5015400;28;20770;-92
2022/08/04 06:44:24;;;;;;;1.17;0.30;;;26.60;1.00;;;;;;5018143;28;20422;-92
2022/08/04 06:46:51;;;;;;;4.17;1.03;;;26.40;99.90;;;;;;5017730;28;20253;-92
2022/08/04 06:49:18;;;;;;;1.23;0.60;;;26.60;1.00;;;;;;5017546;28;20604;-93
2022/08/04 06:51:44;;;;;;;1.27;0.93;;;27.60;4.40;;;;;;5017927;28;20931;-92
2022/08/04 06:54:10;;;;;;;2.17;1.10;;;28.40;35.60;;;;;;5017892;28;20424;-94
2022/08/04 06:56:38;;;;;;;2.40;0.60;;;29.30;1.00;;;;;;5017806;28;20504;-92
2022/08/04 06:59:04;;;;;;;2.93;0.70;;;29.40;1.00;;;;;;5018025;28;20218;-89
2022/08/04 07:01:31;;;;;;;1.10;0.63;;;29.80;99.90;;;;;;5017485;28;20422;-86
2022/08/04 07:03:57;;;;;;;1.87;0.57;;;29.70;99.90;;;;;;5017449;28;20778;-91
2022/08/04 07:06:24;;;;;;;2.97;0.77;;;29.30;99.90;;;;;;5017505;28;20418;-90
2022/08/04 07:08:50;;;;;;;2.50;0.80;;;29.50;99.90;;;;;;5016878;28;20467;-87
2022/08/04 07:11:17;;;;;;;1.37;0.70;;;29.90;99.90;;;;;;5016857;28;20422;-86
2022/08/04 07:13:45;;;;;;;3.90;0.90;;;30.70;99.90;;;;;;4999211;28;20935;-88
2022/08/04 07:16:13;;;;;;;1.03;0.40;;;31.50;99.90;;;;;;5016449;28;20414;-90
2022/08/04 07:18:39;;;;;;;2.30;0.70;;;32.50;99.90;;;;;;4999051;28;20521;-91
2022/08/04 07:21:04;;;;;;;2.37;0.40;;;32.50;99.90;;;;;;5016751;28;20501;-90
2022/08/04 07:23:30;;;;;;;3.07;0.43;;;32.40;99.90;;;;;;5015234;28;20171;-91
2022/08/04 07:25:57;;;;;;;1.13;0.30;;;32.50;96.90;;;;;;5016640;28;20171;-90
2022/08/04 07:28:28;;;;;;;1.47;0.63;;;31.80;99.90;;;;;;5016766;28;20199;-91
2022/08/04 07:30:57;;;;;;;1.57;0.70;;;31.90;99.90;;;;;;5017410;28;20476;-91
2022/08/04 07:33:24;;;;;;;0.60;0.20;;;32.50;93.60;;;;;;5005941;28;20434;-89
2022/08/04 07:35:53;;;;;;;1.60;0.40;;;32.60;91.60;;;;;;5015786;28;20521;-93
2022/08/04 07:38:18;;;;;;;1.47;0.77;;;32.70;85.60;;;;;;5016091;28;20765;-89
2022/08/04 07:40:45;;;;;;;0.80;0.53;;;33.80;99.90;;;;;;5015482;28;20549;-88
2022/08/04 07:43:13;;;;;;;1.67;0.70;;;34.10;52.50;;;;;;5001610;28;20198;-95
2022/08/04 07:45:41;;;;;;;1.70;0.30;;;32.70;34.70;;;;;;5009152;28;20434;-93
2022/08/04 07:48:09;;;;;;;2.10;0.70;;;31.40;76.50;;;;;;5002032;28;20446;-88
2022/08/04 07:50:34;;;;;;;1.77;0.60;;;32.50;74.90;;;;;;4999618;28;20477;-90
2022/08/04 07:53:01;;;;;;;0.97;0.60;;;33.20;43.20;;;;;;5017779;28;20417;-86
2022/08/04 07:55:28;;;;;;;0.90;0.60;;;33.80;37.70;;;;;;5017494;28;20624;-88
2022/08/04 07:57:53;;;;;;;1.33;0.50;;;34.30;40.70;;;;;;4999045;28;20505;-87
2022/08/04 08:00:19;;;;;;;1.63;0.30;;;35.20;32.80;;;;;;5017850;28;20959;-94
2022/08/04 08:02:48;;;;;;;1.03;0.70;;;35.00;18.20;;;;;;4998801;28;20179;-83
2022/08/04 08:05:15;;;;;;;2.73;1.10;;;34.30;11.60;;;;;;5015398;28;20221;-85
2022/08/04 08:07:44;;;;;;;2.27;0.90;;;34.60;17.00;;;;;;5015046;28;20493;-85
2022/08/04 08:10:13;;;;;;;3.17;1.23;;;34.30;14.50;;;;;;5015262;28;21004;-86
2022/08/04 08:12:40;;;;;;;3.87;1.77;;;33.80;10.90;;;;;;5015185;28;20418;-84
2022/08/04 08:15:07;;;;;;;2.10;0.93;;;33.90;13.50;;;;;;5014905;28;20830;-85
2022/08/04 08:17:33;;;;;;;2.03;0.80;;;34.60;21.00;;;;;;5015241;28;20844;-82
2022/08/04 08:19:59;;;;;;;1.80;0.50;;;35.10;10.40;;;;;;4981514;28;20432;-87
2022/08/04 08:22:25;;;;;;;3.30;0.60;;;34.70;1.90;;;;;;5015166;28;20417;-84
2022/08/04 08:24:51;;;;;;;1.80;0.77;;;35.50;2.70;;;;;;4997521;28;20434;-84
2022/08/04 08:27:17;;;;;;;3.07;0.70;;;36.40;5.10;;;;;;5014986;28;20655;-85
2022/08/04 08:29:43;;;;;;;1.60;0.47;;;36.80;1.00;;;;;;5014579;28;20310;-84
2022/08/04 08:32:14;;;;;;;1.33;0.40;;;36.90;1.00;;;;;;5014980;28;20421;-85
2022/08/04 08:34:40;;;;;;;0.90;0.40;;;36.50;1.00;;;;;;5015009;28;20793;-85
2022/08/04 08:37:33;;;;;;;0.90;0.70;;;37.00;1.00;;;;;;5014852;28;20411;-83
2022/08/04 08:40:28;;;;;;;0.50;0.30;;;37.80;1.80;;;;;;5014794;28;20469;-83
2022/08/04 08:43:21;;;;;;;0.93;0.40;;;37.40;1.00;;;;;;5014823;28;20414;-81
2022/08/04 08:45:53;;;;;;;1.20;0.60;;;36.30;1.00;;;;;;5014455;28;20410;-83
2022/08/04 08:48:45;;;;;;;1.50;0.90;;;35.00;1.00;;;;;;5014748;28;20522;-82
2022/08/04 08:51:23;;;;;;;2.13;0.87;;;34.90;1.00;;;;;;5014416;28;20493;-83
2022/08/04 08:54:28;;;;;;;1.50;0.80;;;35.30;1.00;;;;;;5014611;28;20437;-84
2022/08/04 08:57:12;;;;;;;0.80;0.40;;;35.30;1.00;;;;;;4974610;28;20774;-84
2022/08/04 09:00:06;;;;;;;1.23;0.77;;;35.10;1.00;;;;;;5014184;28;20449;-84
2022/08/04 09:03:19;;;;;;;0.80;0.40;;;35.90;1.00;;;;;;5014462;28;20413;-84
2022/08/04 09:06:15;;;;;;;1.67;0.87;;;36.80;1.00;;;;;;4953746;28;20422;-86
2022/08/04 09:08:58;;;;;;;1.17;0.60;;;37.00;1.00;;;;;;5014331;28;20922;-84
2022/08/04 09:11:28;;;;;;;0.90;0.60;;;36.40;1.00;;;;;;5014327;28;20871;-84
2022/08/04 09:14:03;;;;;;;1.60;1.13;;;35.90;1.00;;;;;;5014183;28;20412;-85
2022/08/04 09:16:48;;;;;;;1.23;0.90;;;36.50;1.00;;;;;;5013886;28;20959;-84
2022/08/04 09:19:25;;;;;;;0.90;0.80;;;37.70;1.00;;;;;;5014086;28;20413;-82
2022/08/04 09:21:55;;;;;;;3.27;0.70;;;;;;;;;;5014152;28;20507;-82
2022/08/04 09:24:34;;;;;;;2.30;0.77;;;38.50;1.00;;;;;;5014061;28;20412;-82
2022/08/04 09:27:04;;;;;;;0.90;0.90;;;38.40;1.00;;;;;;5014025;28;20417;-82
2022/08/04 09:29:38;;;;;;;1.00;0.90;;;38.10;1.00;;;;;;5013248;28;20473;-81
2022/08/04 09:32:33;;;;;;;1.50;1.10;;;38.50;1.00;;;;;;5013604;28;20417;-83
2022/08/04 09:35:36;;;;;;;1.67;1.57;;;37.90;1.00;;;;;;5013823;28;20406;-82
2022/08/04 09:38:26;;;;;;;1.80;0.70;;;38.70;1.00;;;;;;5013706;28;20496;-82
2022/08/04 09:41:10;;;;;;;1.83;1.03;;;39.50;1.00;;;;;;5013580;28;20412;-83
2022/08/04 09:44:04;;;;;;;1.27;1.17;;;38.50;1.00;;;;;;5013533;28;21020;-82
2022/08/04 09:46:56;;;;;;;1.20;1.10;;;38.60;1.00;;;;;;5013217;28;20410;-84
2022/08/04 09:49:35;;;;;;;2.87;1.40;;;;;;;;;;4995285;28;20464;-82
2022/08/04 09:52:10;;;;;;;1.60;1.37;;;39.40;1.00;;;;;;5013472;28;20413;-84
2022/08/04 09:55:01;;;;;;;0.87;0.87;;;39.70;1.00;;;;;;4995855;28;20492;-82
2022/08/04 09:57:45;;;;;;;2.20;1.80;;;40.10;1.00;;;;;;5013487;28;20922;-83
2022/08/04 10:00:15;;;;;;;1.57;1.47;;;40.10;1.00;;;;;;5012897;28;20839;-81
2022/08/04 10:02:49;;;;;;;1.63;1.10;;;38.40;1.00;;;;;;5013112;28;20471;-83
2022/08/04 10:05:21;;;;;;;1.10;0.90;;;38.40;1.00;;;;;;5013066;28;20449;-83
2022/08/04 10:08:24;;;;;;;1.20;0.80;;;38.20;1.00;;;;;;5011295;28;20548;-87
2022/08/04 10:10:55;;;;;;;1.20;1.10;;;39.10;1.00;;;;;;5014444;28;20489;-84
2022/08/04 10:13:58;;;;;;;1.77;1.03;;;39.50;1.00;;;;;;4993333;28;20430;-83
2022/08/04 10:16:48;;;;;;;0.90;0.80;;;39.40;1.00;;;;;;4990749;28;20465;-84
2022/08/04 10:19:28;;;;;;;1.27;1.17;;;38.70;1.00;;;;;;4992164;28;20419;-83
2022/08/04 10:22:20;;;;;;;0.93;0.93;;;38.50;1.00;;;;;;4992283;28;20426;-83
2022/08/04 10:25:24;;;;;;;3.20;1.00;;;39.70;1.00;;;;;;4993135;28;20419;-85
2022/08/04 10:28:01;;;;;;;1.10;1.00;;;39.40;1.00;;;;;;4933410;29;20432;-87
2022/08/04 10:30:31;;;;;;;1.60;1.27;;;38.70;1.00;;;;;;4969120;28;20474;-84
2022/08/04 10:33:39;;;;;;;1.10;1.00;;;38.90;1.00;;;;;;4975680;28;20427;-85
2022/08/04 10:36:09;;;;;;;1.83;1.07;;;38.50;1.00;;;;;;4932887;29;20460;-85
2022/08/04 10:38:54;;;;;;;1.00;0.90;;;37.50;1.00;;;;;;4985047;28;20911;-84
2022/08/04 10:41:38;;;;;;;1.37;0.80;;;36.50;1.00;;;;;;4993315;28;20508;-87
2022/08/04 10:44:27;;;;;;;1.13;0.90;;;38.00;1.00;;;;;;4992985;28;20415;-83
2022/08/04 10:47:00;;;;;;;1.07;0.97;;;38.70;1.00;;;;;;4993100;28;20773;-88
2022/08/04 10:49:45;;;;;;;1.33;1.23;;;38.80;1.00;;;;;;4992829;28;20486;-84
2022/08/04 10:52:21;;;;;;;1.63;0.50;;;38.50;1.00;;;;;;4975575;28;20959;-87
2022/08/04 10:55:07;;;;;;;1.13;0.90;;;37.60;1.00;;;;;;4992933;28;20422;-86
2022/08/04 10:57:45;;;;;;;2.00;1.10;;;38.00;1.00;;;;;;4992653;28;20450;-89
2022/08/04 11:00:18;;;;;;;1.50;1.10;;;39.10;1.00;;;;;;4975065;28;20414;-86
2022/08/04 11:03:07;;;;;;;1.63;1.53;;;39.30;1.00;;;;;;4992933;28;20438;-85
2022/08/04 11:05:41;;;;;;;1.63;1.50;;;;;;;;;;4992832;28;20418;-85
2022/08/04 11:08:34;;;;;;;2.53;1.13;;;39.70;1.00;;;;;;4992921;28;20414;-84
2022/08/04 11:11:08;;;;;;;1.23;1.13;;;39.60;1.00;;;;;;4983196;28;20493;-86
2022/08/04 11:13:48;;;;;;;1.10;1.10;;;39.80;1.00;;;;;;4992562;28;20402;-85
2022/08/04 11:16:23;;;;;;;1.58;1.48;;;40.40;1.00;;;;;;4992389;28;20418;-86
2022/08/04 11:19:05;;;;;;;1.48;1.38;;;40.90;1.00;;;;;;4975151;28;20926;-87
2022/08/04 11:21:41;;;;;;;1.95;1.70;;;41.20;1.00;;;;;;4991650;28;20639;-86
2022/08/04 11:24:16;;;;;;;1.23;1.23;;;40.50;1.00;;;;;;4992525;28;20426;-85
2022/08/04 11:26:56;;;;;;;1.63;1.53;;;40.90;1.00;;;;;;4992754;28;20163;-86
2022/08/04 11:29:21;;;;;;;1.77;1.67;;;40.10;1.00;;;;;;4995765;28;20472;-85
2022/08/04 11:31:48;;;;;;;1.63;1.53;;;39.70;1.00;;;;;;4996064;28;20504;-87
2022/08/04 11:34:22;;;;;;;1.13;1.10;;;40.60;1.00;;;;;;4996334;28;20198;-88
2022/08/04 11:36:57;;;;;;;1.47;1.37;;;40.20;1.00;;;;;;4996126;28;20427;-87
2022/08/04 11:39:40;;;;;;;1.90;1.37;;;40.30;1.00;;;;;;4996053;28;20460;-90
2022/08/04 11:42:19;;;;;;;1.60;1.50;;;40.80;1.00;;;;;;4996014;28;20775;-87
2022/08/04 11:44:47;;;;;;;1.73;1.63;;;;;;;;;;4995801;28;20414;-90
2022/08/04 11:47:32;;;;;;;1.48;1.38;;;41.80;1.00;;;;;;4995139;28;20540;-89
2022/08/04 11:50:09;;;;;;;1.10;0.90;;;40.40;1.00;;;;;;4995552;28;20478;-88
2022/08/04 11:52:38;;;;;;;0.83;0.83;;;39.20;1.00;;;;;;4996017;28;20903;-89
2022/08/04 11:55:08;;;;;;;1.10;0.87;;;39.20;1.00;;;;;;4996274;28;20893;-90
2022/08/04 11:57:34;;;;;;;3.10;1.57;;;39.30;1.00;;;;;;4996090;28;20418;-88
2022/08/04 12:00:01;;;;;;;2.00;1.47;;;39.30;1.00;;;;;;4995531;28;20427;-89
2022/08/04 12:02:59;;;;;;;1.13;0.67;;;38.70;1.00;;;;;;4994441;28;20183;-91
2022/08/04 12:05:35;;;;;;;0.97;0.80;;;37.40;1.00;;;;;;4994527;28;20430;-91
2022/08/04 12:08:16;;;;;;;0.80;0.60;;;37.20;1.00;;;;;;4978154;28;20954;-86
2022/08/04 12:10:56;;;;;;;1.50;1.13;;;37.20;1.00;;;;;;4995551;28;20585;-86
2022/08/04 12:13:39;;;;;;;1.20;0.83;;;38.10;1.00;;;;;;5006503;28;20420;-86
2022/08/04 12:16:26;;;;;;;1.50;1.40;;;39.70;1.00;;;;;;4988942;28;20431;-87
2022/08/04 12:19:02;;;;;;;3.47;1.20;;;41.00;1.00;;;;;;4992526;28;20545;-85
2022/08/04 12:21:30;;;;;;;1.43;0.90;;;40.00;1.00;;;;;;4993727;28;20417;-89
2022/08/04 12:24:01;;;;;;;1.00;0.90;;;38.70;1.00;;;;;;4994813;28;20448;-88
2022/08/04 12:26:33;;;;;;;0.93;0.83;;;37.90;1.00;;;;;;5013751;28;20418;-85
2022/08/04 12:29:00;;;;;;;1.20;0.60;;;37.70;1.00;;;;;;4995432;28;20517;-83
2022/08/04 12:31:30;;;;;;;1.43;0.97;;;38.00;1.00;;;;;;5013437;28;20414;-85
2022/08/04 12:34:24;;;;;;;0.70;0.63;;;37.80;1.00;;;;;;4995893;28;20772;-84
2022/08/04 12:37:22;;;;;;;1.10;0.80;;;38.70;1.00;;;;;;5000403;28;20423;-82
2022/08/04 12:39:52;;;;;;;0.80;0.70;;;38.70;1.00;;;;;;5021821;28;20414;-84
2022/08/04 12:42:26;;;;;;;1.20;0.73;;;39.20;1.00;;;;;;5019410;28;20414;-84
2022/08/04 12:44:53;;;;;;;1.13;0.60;;;39.60;1.00;;;;;;5024057;28;20977;-85
2022/08/04 12:47:22;;;;;;;1.57;1.33;;;40.30;1.00;;;;;;5018219;28;20476;-86
2022/08/04 12:49:49;;;;;;;1.07;1.07;;;40.40;1.00;;;;;;5012968;28;20985;-83
2022/08/04 12:52:17;;;;;;;1.13;1.03;;;41.10;1.00;;;;;;5012917;28;20445;-84
2022/08/04 12:54:50;;;;;;;1.27;0.60;;;40.70;1.00;;;;;;5012991;28;20536;-85
2022/08/04 12:57:17;;;;;;;1.27;1.17;;;40.90;1.00;;;;;;5012904;28;20406;-84
2022/08/04 12:59:44;;;;;;;1.63;1.53;;;40.70;1.00;;;;;;5013526;28;20456;-84
2022/08/04 13:02:26;;;;;;;1.30;1.30;;;40.60;1.00;;;;;;5013852;28;20409;-83
2022/08/04 13:04:54;;;;;;;1.30;1.20;;;40.30;1.00;;;;;;5012865;28;20410;-85
2022/08/04 13:07:23;;;;;;;1.30;1.20;;;39.60;1.00;;;;;;5013972;28;20422;-84
2022/08/04 13:09:50;;;;;;;1.20;1.10;;;37.90;1.00;;;;;;5013735;28;20515;-88
2022/08/04 13:12:28;;;;;;;2.20;1.10;;;37.40;1.00;;;;;;5012687;28;20437;-84
2022/08/04 13:15:13;;;;;;;1.30;0.80;;;37.10;1.00;;;;;;5012031;28;20402;-84
2022/08/04 13:18:00;;;;;;;1.23;1.10;;;37.10;1.00;;;;;;5010308;28;20475;-84
2022/08/04 13:20:32;;;;;;;1.33;1.23;;;37.30;1.00;;;;;;5009950;28;20863;-83
2022/08/04 13:23:10;;;;;;;1.63;1.10;;;38.30;1.00;;;;;;5011826;28;20406;-85
2022/08/04 13:25:42;;;;;;;0.90;0.90;;;38.20;1.00;;;;;;5010575;28;20425;-83
2022/08/04 13:28:13;;;;;;;0.80;0.77;;;38.20;1.00;;;;;;5012185;28;20810;-83
2022/08/04 13:30:39;;;;;;;1.37;1.27;;;38.70;1.00;;;;;;5011372;28;20465;-85
2022/08/04 13:33:05;;;;;;;1.47;1.00;;;39.00;1.00;;;;;;5012198;28;20989;-89
2022/08/04 13:35:33;;;;;;;1.50;1.40;;;39.00;1.00;;;;;;5012262;28;20171;-84
2022/08/04 13:37:59;;;;;;;0.93;0.80;;;38.60;1.00;;;;;;5012050;28;20509;-83
2022/08/04 13:40:29;;;;;;;0.90;0.83;;;39.10;1.00;;;;;;5011787;28;20440;-84
2022/08/04 13:43:05;;;;;;;1.20;1.10;;;38.80;1.00;;;;;;5012027;28;20410;-85
2022/08/04 13:45:36;;;;;;;0.80;0.80;;;38.80;1.00;;;;;;5012535;28;20405;-84
2022/08/04 13:48:02;;;;;;;1.00;0.73;;;38.60;1.00;;;;;;5012760;28;20430;-84